createdAt,value
2023-03-04T00:00:10.583Z,0.30
2023-03-04T00:03:20.672Z,0.30
2023-03-04T00:06:32.907Z,0.23
2023-03-04T00:09:44.785Z,0.23
2023-03-04T00:12:56.602Z,0.21
2023-03-04T00:16:11.621Z,0.18
2023-03-04T00:19:23.573Z,0.15
2023-03-04T00:22:35.436Z,0.18
2023-03-04T00:25:43.725Z,0.19
2023-03-04T00:28:51.514Z,0.17
2023-03-04T00:32:03.555Z,0.17
2023-03-04T00:35:16.378Z,0.18
2023-03-04T00:38:28.385Z,0.15
2023-03-04T00:41:40.471Z,0.16
2023-03-04T00:44:53.512Z,0.21
2023-03-04T00:48:05.417Z,0.21
2023-03-04T00:51:17.414Z,0.19
2023-03-04T00:54:29.296Z,0.23
2023-03-04T00:57:41.745Z,0.19
2023-03-04T01:00:53.617Z,0.09
2023-03-04T01:04:05.649Z,0.17
2023-03-04T01:07:18.229Z,0.20
2023-03-04T01:10:30.168Z,0.21
2023-03-04T01:13:42.561Z,0.22
2023-03-04T01:16:56.416Z,0.22
2023-03-04T01:20:09.233Z,0.22
2023-03-04T01:23:21.390Z,0.23
2023-03-04T01:26:33.433Z,0.27
2023-03-04T01:29:45.498Z,0.25
2023-03-04T01:32:57.453Z,0.27
2023-03-04T01:36:10.084Z,0.31
2023-03-04T01:39:18.009Z,0.31
2023-03-04T01:42:32.563Z,0.34
2023-03-04T01:45:44.762Z,0.36
2023-03-04T01:48:56.755Z,0.36
2023-03-04T01:52:08.851Z,0.35
2023-03-04T01:55:26.191Z,0.41
2023-03-04T01:58:35.403Z,0.45
2023-03-04T02:01:49.548Z,0.47
2023-03-04T02:05:01.534Z,0.44
2023-03-04T02:08:15.147Z,0.43
2023-03-04T02:11:27.291Z,0.42
2023-03-04T02:14:40.059Z,0.43
2023-03-04T02:17:52.252Z,0.45
2023-03-04T02:21:12.332Z,0.44
2023-03-04T02:24:30.677Z,0.40
2023-03-04T02:27:43.051Z,0.47
2023-03-04T02:30:55.254Z,0.48
2023-03-04T02:34:11.204Z,0.52
2023-03-04T02:37:24.091Z,0.51
2023-03-04T02:40:40.204Z,0.51
2023-03-04T02:47:01.492Z,0.50
2023-03-04T02:50:16.308Z,0.50
2023-03-04T02:53:29.813Z,0.53
2023-03-04T02:56:41.748Z,0.50
2023-03-04T02:59:55.152Z,0.51
2023-03-04T03:03:05.084Z,0.54
2023-03-04T03:06:15.075Z,0.48
2023-03-04T03:09:27.824Z,0.50
2023-03-04T03:12:41.122Z,0.50
2023-03-04T03:15:53.679Z,0.46
2023-03-04T03:19:08.169Z,0.51
2023-03-04T03:22:21.072Z,0.51
2023-03-04T03:25:33.115Z,0.54
2023-03-04T03:28:45.002Z,0.54
2023-03-04T03:31:57.248Z,0.54
2023-03-04T03:35:10.684Z,0.52
2023-03-04T03:38:22.917Z,0.55
2023-03-04T03:41:34.752Z,0.54
2023-03-04T03:44:46.630Z,0.57
2023-03-04T03:47:54.333Z,0.59
2023-03-04T03:51:06.203Z,0.57
2023-03-04T03:54:18.122Z,0.58
2023-03-04T03:57:29.996Z,0.62
2023-03-04T04:00:42.006Z,0.61
2023-03-04T04:03:53.973Z,0.60
2023-03-04T04:07:07.782Z,0.56
2023-03-04T04:10:20.559Z,0.56
2023-03-04T04:13:32.521Z,0.55
2023-03-04T04:16:44.463Z,0.56
2023-03-04T04:19:56.736Z,0.54
2023-03-04T04:23:09.253Z,0.51
2023-03-04T04:26:21.286Z,0.44
2023-03-04T04:29:33.633Z,0.40
2023-03-04T04:32:48.066Z,0.36
2023-03-04T04:36:01.324Z,0.33
2023-03-04T04:39:13.366Z,0.27
2023-03-04T04:42:21.032Z,0.23
2023-03-04T04:45:33.260Z,0.24
2023-03-04T04:48:40.954Z,0.24
2023-03-04T04:51:52.804Z,0.23
2023-03-04T04:55:04.868Z,0.22
2023-03-04T04:58:16.888Z,0.24
2023-03-04T05:01:29.622Z,0.20
2023-03-04T05:04:41.679Z,0.17
2023-03-04T05:07:53.575Z,0.16
2023-03-04T05:11:05.736Z,0.19
2023-03-04T05:14:17.797Z,0.19
2023-03-04T05:17:30.112Z,0.23
2023-03-04T05:20:42.043Z,0.25
2023-03-04T05:23:53.968Z,0.18
2023-03-04T05:27:06.113Z,0.22
2023-03-04T05:30:20.339Z,0.21
2023-03-04T05:33:34.014Z,0.16
2023-03-04T05:36:45.911Z,0.16
2023-03-04T05:39:57.812Z,0.15
2023-03-04T05:46:21.331Z,0.13
2023-03-04T05:49:29.103Z,0.11
2023-03-04T05:52:40.988Z,0.10
2023-03-04T05:55:55.646Z,0.14
2023-03-04T05:59:07.792Z,0.11
2023-03-04T06:02:19.979Z,0.06
2023-03-04T06:05:32.141Z,0.05
2023-03-04T06:08:44.207Z,0.05
2023-03-04T06:11:56.075Z,0.15
2023-03-04T06:15:10.126Z,0.15
2023-03-04T06:18:22.142Z,0.17
2023-03-04T06:21:34.121Z,0.17
2023-03-04T06:24:46.274Z,0.20
2023-03-04T06:27:58.657Z,0.16
2023-03-04T06:31:10.960Z,0.17
2023-03-04T06:34:23.290Z,0.14
2023-03-04T06:37:35.327Z,0.17
2023-03-04T06:40:47.366Z,0.20
2023-03-04T06:44:01.700Z,0.20
2023-03-04T06:47:14.152Z,0.21
2023-03-04T06:50:26.458Z,0.19
2023-03-04T06:53:38.601Z,0.16
2023-03-04T06:56:50.601Z,0.13
2023-03-04T07:00:03.491Z,0.05
2023-03-04T07:03:17.221Z,0.02
2023-03-04T07:06:31.558Z,0.02
2023-03-04T07:09:43.725Z,-0.09
2023-03-04T07:12:56.090Z,-0.11
2023-03-04T07:16:09.538Z,-0.07
2023-03-04T07:19:21.976Z,-0.10
2023-03-04T07:22:34.112Z,-0.08
2023-03-04T07:25:46.294Z,-0.13
2023-03-04T07:28:59.925Z,-0.05
2023-03-04T07:32:11.062Z,-0.09
2023-03-04T07:35:24.003Z,0.01
2023-03-04T07:38:36.489Z,0.05
2023-03-04T07:41:49.010Z,0.09
2023-03-04T07:45:02.107Z,-0.02
2023-03-04T07:51:16.832Z,0.01
2023-03-04T07:54:28.986Z,0.08
2023-03-04T07:57:41.074Z,0.11
2023-03-04T08:00:48.802Z,0.17
2023-03-04T08:04:02.585Z,0.19
2023-03-04T08:07:14.769Z,0.12
2023-03-04T08:10:26.902Z,0.06
2023-03-04T08:13:38.912Z,0.08
2023-03-04T08:16:50.834Z,0.11
2023-03-04T08:20:02.803Z,-0.02
2023-03-04T08:23:14.848Z,0.00
2023-03-04T08:29:35.898Z,0.04
2023-03-04T08:32:43.778Z,0.15
2023-03-04T08:35:56.031Z,0.14
2023-03-04T08:39:08.280Z,0.21
2023-03-04T08:42:20.321Z,0.12
2023-03-04T08:45:32.344Z,0.15
2023-03-04T08:48:45.026Z,0.20
2023-03-04T08:51:56.976Z,0.24
2023-03-04T08:55:10.011Z,0.26
2023-03-04T08:58:22.176Z,0.31
2023-03-04T09:01:34.426Z,0.39
2023-03-04T09:04:46.757Z,0.45
2023-03-04T09:07:58.636Z,0.51
2023-03-04T09:11:07.344Z,0.50
2023-03-04T09:14:19.353Z,0.53
2023-03-04T09:17:31.630Z,0.55
2023-03-04T09:20:43.701Z,0.59
2023-03-04T09:23:58.560Z,0.49
2023-03-04T09:27:10.553Z,0.47
2023-03-04T09:30:23.944Z,0.47
2023-03-04T09:33:36.098Z,0.46
2023-03-04T09:36:48.117Z,0.50
2023-03-04T09:40:00.034Z,0.46
2023-03-04T09:49:36.820Z,0.43
2023-03-04T09:52:58.878Z,0.35
2023-03-04T09:56:11.969Z,0.38
2023-03-04T09:59:31.494Z,0.48
2023-03-04T10:02:51.654Z,0.54
2023-03-04T10:09:21.103Z,0.58
2023-03-04T10:12:32.987Z,0.57
2023-03-04T10:15:51.116Z,0.61
2023-03-04T10:19:10.532Z,0.58
2023-03-04T10:22:27.189Z,0.54
2023-03-04T10:25:41.216Z,0.62
2023-03-04T10:28:53.803Z,0.61
2023-03-04T10:32:05.704Z,0.62
2023-03-04T10:35:20.541Z,0.66
2023-03-04T10:38:30.873Z,0.66
2023-03-04T10:41:45.484Z,0.74
2023-03-04T10:45:03.762Z,0.74
2023-03-04T10:51:35.279Z,0.72
2023-03-04T10:54:49.057Z,0.70
2023-03-04T10:58:05.334Z,0.71
2023-03-04T11:01:17.858Z,0.76
2023-03-04T11:04:32.235Z,0.81
2023-03-04T11:07:55.855Z,0.85
2023-03-04T11:11:03.201Z,0.94
2023-03-04T11:14:21.577Z,0.96
2023-03-04T11:17:37.817Z,0.99
2023-03-04T11:20:52.827Z,1.03
2023-03-04T11:27:19.655Z,1.02
2023-03-04T11:30:42.008Z,1.03
2023-03-04T11:33:56.026Z,0.95
2023-03-04T11:37:10.352Z,1.01
2023-03-04T11:43:34.791Z,1.20
2023-03-04T11:47:07.985Z,1.16
2023-03-04T11:50:44.564Z,1.28
2023-03-04T11:54:13.793Z,1.30
2023-03-04T11:57:30.871Z,1.35
2023-03-04T12:00:48.263Z,1.33
2023-03-04T12:04:10.374Z,1.34
2023-03-04T12:10:49.235Z,1.42
2023-03-04T12:18:12.537Z,1.49
2023-03-04T12:21:37.665Z,1.48
2023-03-04T12:25:30.771Z,1.46
2023-03-04T12:28:57.758Z,1.51
2023-03-04T12:32:18.544Z,1.49
2023-03-04T12:35:45.566Z,1.53
2023-03-04T12:39:16.431Z,1.57
2023-03-04T12:42:33.347Z,1.60
2023-03-04T12:49:18.620Z,1.63
2023-03-04T12:52:41.662Z,1.64
2023-03-04T12:55:55.862Z,1.69
2023-03-04T12:59:09.109Z,1.74
2023-03-04T13:02:56.501Z,1.73
2023-03-04T13:06:36.029Z,1.86
2023-03-04T13:09:54.733Z,1.80
2023-03-04T13:13:08.536Z,1.86
2023-03-04T13:16:43.007Z,1.86
2023-03-04T13:20:05.208Z,1.94
2023-03-04T13:23:33.536Z,2.01
2023-03-04T13:26:41.906Z,2.03
2023-03-04T13:29:54.374Z,2.04
2023-03-04T13:33:25.930Z,2.11
2023-03-04T13:37:03.665Z,2.12
2023-03-04T13:40:42.330Z,2.25
2023-03-04T13:43:56.072Z,2.34
2023-03-04T13:47:20.514Z,2.32
2023-03-04T13:50:45.073Z,2.39
2023-03-04T13:53:59.474Z,2.41
2023-03-04T13:57:26.286Z,2.39
2023-03-04T14:00:38.682Z,2.41
2023-03-04T14:03:50.920Z,2.32
2023-03-04T14:07:06.448Z,2.43
2023-03-04T14:10:30.337Z,2.44
2023-03-04T14:13:43.525Z,2.41
2023-03-04T14:20:06.039Z,2.42
2023-03-04T14:23:33.330Z,2.41
2023-03-04T14:26:45.502Z,2.42
2023-03-04T14:30:06.025Z,2.41
2023-03-04T14:33:26.003Z,2.38
2023-03-04T14:36:42.121Z,2.37
2023-03-04T14:39:58.489Z,2.38
2023-03-04T14:43:12.183Z,2.40
2023-03-04T14:46:26.039Z,2.40
2023-03-04T14:49:38.887Z,2.39
2023-03-04T14:52:49.221Z,2.39
2023-03-04T14:56:07.207Z,2.37
2023-03-04T14:59:20.936Z,2.39
2023-03-04T15:02:40.301Z,2.41
2023-03-04T15:05:53.012Z,2.42
2023-03-04T15:12:17.453Z,2.45
2023-03-04T15:15:51.083Z,2.50
2023-03-04T15:19:06.289Z,2.50
2023-03-04T15:22:18.210Z,2.51
2023-03-04T15:25:31.110Z,2.55
2023-03-04T15:28:45.723Z,2.57
2023-03-04T15:31:57.648Z,2.60
2023-03-04T15:35:11.009Z,2.61
2023-03-04T15:38:23.214Z,2.63
2023-03-04T15:41:35.168Z,2.63
2023-03-04T15:44:47.382Z,2.65
2023-03-04T15:47:55.721Z,2.71
2023-03-04T15:51:11.346Z,2.73
2023-03-04T15:54:19.188Z,2.74
2023-03-04T15:57:33.440Z,2.78
2023-03-04T16:00:45.432Z,2.82
2023-03-04T16:03:58.069Z,2.83
2023-03-04T16:07:05.883Z,2.82
2023-03-04T16:10:21.161Z,2.85
2023-03-04T16:13:33.253Z,2.86
2023-03-04T16:16:47.104Z,2.88
2023-03-04T16:19:59.136Z,2.87
2023-03-04T16:23:13.854Z,2.87
2023-03-04T16:29:33.631Z,2.91
2023-03-04T16:32:41.470Z,2.92
2023-03-04T16:35:54.301Z,2.94
2023-03-04T16:39:13.041Z,2.94
2023-03-04T16:42:27.385Z,2.94
2023-03-04T16:45:40.234Z,2.95
2023-03-04T16:48:52.773Z,2.95
2023-03-04T16:52:05.054Z,2.96
2023-03-04T16:55:24.697Z,2.97
2023-03-04T16:58:37.257Z,2.97
2023-03-04T17:01:49.994Z,2.98
2023-03-04T17:05:02.040Z,2.98
2023-03-04T17:08:14.051Z,2.98
2023-03-04T17:11:28.242Z,2.97
2023-03-04T17:14:41.238Z,2.97
2023-03-04T17:17:53.749Z,2.97
2023-03-04T17:21:13.211Z,2.97
2023-03-04T17:24:21.021Z,2.98
2023-03-04T17:27:33.012Z,2.97
2023-03-04T17:30:41.560Z,3.00
2023-03-04T17:33:54.484Z,2.99
2023-03-04T17:37:06.569Z,2.98
2023-03-04T17:43:27.193Z,2.98
2023-03-04T17:46:39.516Z,2.99
2023-03-04T17:49:51.491Z,2.98
2023-03-04T17:53:03.458Z,3.00
2023-03-04T17:56:17.366Z,3.00
2023-03-04T17:59:30.352Z,3.02
2023-03-04T18:02:42.688Z,3.00
2023-03-04T18:05:54.881Z,3.02
2023-03-04T18:09:07.064Z,3.03
2023-03-04T18:12:19.659Z,3.06
2023-03-04T18:15:31.770Z,3.05
2023-03-04T18:18:44.418Z,3.06
2023-03-04T18:21:56.389Z,3.06
2023-03-04T18:25:11.030Z,3.09
2023-03-04T18:28:23.141Z,3.10
2023-03-04T18:31:37.133Z,3.18
2023-03-04T18:34:49.185Z,3.19
2023-03-04T18:38:01.390Z,3.17
2023-03-04T18:44:21.791Z,3.14
2023-03-04T18:47:34.574Z,3.14
2023-03-04T18:50:46.575Z,3.13
2023-03-04T18:53:58.650Z,3.10
2023-03-04T18:57:16.629Z,3.08
2023-03-04T19:00:30.464Z,3.08
2023-03-04T19:03:44.603Z,3.08
2023-03-04T19:06:52.596Z,3.09
2023-03-04T19:13:05.475Z,3.08
2023-03-04T19:19:18.068Z,3.10
2023-03-04T19:22:30.243Z,3.09
2023-03-04T19:25:43.435Z,3.08
2023-03-04T19:28:55.498Z,3.10
2023-03-04T19:32:07.640Z,3.10
2023-03-04T19:35:19.713Z,3.10
2023-03-04T19:38:31.797Z,3.11
2023-03-04T19:41:40.029Z,3.11
2023-03-04T19:44:52.050Z,3.11
2023-03-04T19:47:59.817Z,3.13
2023-03-04T19:51:19.778Z,3.14
2023-03-04T19:54:31.889Z,3.08
2023-03-04T19:57:44.595Z,3.16
2023-03-04T20:00:58.025Z,3.19
2023-03-04T20:04:14.481Z,3.22
2023-03-04T20:07:26.476Z,3.20
2023-03-04T20:10:44.736Z,3.22
2023-03-04T20:16:58.736Z,3.22
2023-03-04T20:20:14.439Z,3.23
2023-03-04T20:23:29.185Z,3.24
2023-03-04T20:26:40.617Z,3.25
2023-03-04T20:29:53.461Z,3.25
2023-03-04T20:33:01.143Z,3.25
2023-03-04T20:36:09.895Z,3.25
2023-03-04T20:39:29.097Z,3.25
2023-03-04T20:42:36.200Z,3.25
2023-03-04T20:45:48.340Z,3.25
2023-03-04T20:49:01.074Z,3.24
2023-03-04T20:52:14.541Z,3.24
2023-03-04T20:55:28.072Z,3.23
2023-03-04T20:58:40.801Z,3.11
2023-03-04T21:05:19.840Z,2.81
2023-03-04T21:08:31.904Z,2.79
2023-03-04T21:11:44.776Z,2.77
2023-03-04T21:14:56.824Z,2.76
2023-03-04T21:18:09.334Z,2.83
2023-03-04T21:21:26.170Z,2.79
2023-03-04T21:24:40.365Z,2.83
2023-03-04T21:27:52.368Z,2.84
2023-03-04T21:34:13.519Z,2.77
2023-03-04T21:37:26.328Z,2.65
2023-03-04T21:40:39.410Z,2.57
2023-03-04T21:43:52.239Z,2.44
2023-03-04T21:47:05.521Z,2.37
2023-03-04T21:50:18.779Z,2.32
2023-03-04T21:53:30.815Z,2.26
2023-03-04T21:59:49.761Z,2.17
2023-03-04T22:03:01.763Z,2.06
2023-03-04T22:06:17.346Z,1.99
2023-03-04T22:09:29.494Z,1.91
2023-03-04T22:12:42.074Z,1.92
2023-03-04T22:15:54.373Z,1.92
2023-03-04T22:19:07.029Z,1.92
2023-03-04T22:22:19.910Z,1.90
2023-03-04T22:25:32.399Z,1.96
2023-03-04T22:28:45.075Z,1.98
2023-03-04T22:31:57.124Z,2.03
2023-03-04T22:35:10.468Z,2.02
2023-03-04T22:38:22.839Z,2.04
2023-03-04T22:41:34.849Z,2.05
2023-03-04T22:44:46.880Z,2.07
2023-03-04T22:48:00.523Z,2.04
2023-03-04T22:51:15.183Z,2.05
2023-03-04T22:54:28.070Z,2.06
2023-03-04T22:57:40.008Z,2.04
2023-03-04T23:00:52.179Z,2.02
2023-03-04T23:04:05.043Z,2.01
2023-03-04T23:07:17.119Z,2.02
2023-03-04T23:10:31.137Z,1.99
2023-03-04T23:13:43.770Z,1.98
2023-03-04T23:16:56.146Z,1.98
2023-03-04T23:20:08.644Z,1.99
2023-03-04T23:23:20.888Z,2.00
2023-03-04T23:26:36.470Z,1.99
2023-03-04T23:29:48.542Z,2.00
2023-03-04T23:33:00.544Z,1.99
2023-03-04T23:36:15.256Z,2.01
2023-03-04T23:39:27.776Z,2.01
2023-03-04T23:42:39.712Z,2.02
2023-03-04T23:48:58.447Z,1.99
2023-03-04T23:52:11.216Z,2.00
2023-03-04T23:55:25.639Z,2.03
2023-03-04T23:58:37.517Z,2.00
